^^
Saratoga-Weather Station Historical Data
Daily Summary for September 1, 2021 Units:  English    Metric   Both
Daily Weekly Monthly Yearly Custom
  High: Low: Average:
Temperature: 64.8 °F 39.9 °F 52 °F
Dew Point: 51.4 °F 38.7 °F 45.7 °F
Humidity: 97% 51% 81%
Wind Speed: 6.9mph 0mph 0.7mph
Wind Gust: 12mph - -
Wind- - SSW
Pressure: 30.2 in 30 in -
Precipitation: 0 in    
Historical Graphs
 
 
Tabular Data for September 1, 2021
Time Temperature Dew Point Pressure Wind Wind Speed Wind Gust Humidity Rainfall Rate (Hourly) solar
00:03 45.3 °F 41.9 °F 30.2 in Calm     88% 0 in 0 W/m2
00:08 45.3 °F 42.3 °F 30.2 in Calm     89% 0 in 0 W/m2
00:13 45.3 °F 42.3 °F 30.2 in Calm     89% 0 in 0 W/m2
00:18 45.1 °F 42.1 °F 30.2 in Calm     89% 0 in 0 W/m2
00:23 45.1 °F 42.1 °F 30.2 in Calm     89% 0 in 0 W/m2
00:28 45 °F 42.3 °F 30.2 in Calm     90% 0 in 0 W/m2
00:33 45 °F 42.3 °F 30.2 in Calm     90% 0 in 0 W/m2
00:38 45 °F 42.3 °F 30.2 in Calm     90% 0 in 0 W/m2
00:43 44.8 °F 42.1 °F 30.2 in Calm     90% 0 in 0 W/m2
00:48 45 °F 42.4 °F 30.2 in Calm     91% 0 in 0 W/m2
00:53 45 °F 42.4 °F 30.2 in Calm     91% 0 in 0 W/m2
00:58 45 °F 42.4 °F 30.2 in WNW 0.9 mph 2 mph 91% 0 in 0 W/m2
01:04 45 °F 42.4 °F 30.2 in Calm     91% 0 in 0 W/m2
01:09 45 °F 42.4 °F 30.2 in Calm     91% 0 in 0 W/m2
01:14 45 °F 42.4 °F 30.2 in Calm     91% 0 in 0 W/m2
01:19 45 °F 42.4 °F 30.2 in Calm   1 mph 91% 0 in 0 W/m2
01:24 44.8 °F 42.3 °F 30.2 in Calm     91% 0 in 0 W/m2
01:29 44.6 °F 42.1 °F 30.2 in Calm   1 mph 91% 0 in 0 W/m2
01:34 44.4 °F 41.9 °F 30.2 in Calm     91% 0 in 0 W/m2
01:39 44.2 °F 41.7 °F 30.2 in Calm     91% 0 in 0 W/m2
01:44 44.2 °F 41.7 °F 30.2 in Calm     91% 0 in 0 W/m2
01:49 44.1 °F 41.5 °F 30.2 in Calm     91% 0 in 0 W/m2
01:54 43.9 °F 41.4 °F 30.2 in Calm     91% 0 in 0 W/m2
01:59 43.7 °F 41.2 °F 30.2 in Calm     91% 0 in 0 W/m2
02:04 43.5 °F 41 °F 30.2 in Calm     91% 0 in 0 W/m2
02:09 43.3 °F 41.2 °F 30.2 in Calm     92% 0 in 0 W/m2
02:14 43.3 °F 41.2 °F 30.2 in Calm     92% 0 in 0 W/m2
02:19 43.3 °F 41.2 °F 30.2 in Calm     92% 0 in 0 W/m2
02:24 43.2 °F 41 °F 30.2 in Calm     92% 0 in 0 W/m2
02:29 43.2 °F 41.4 °F 30.2 in Calm     93% 0 in 0 W/m2
02:34 43.2 °F 41.4 °F 30.2 in Calm     93% 0 in 0 W/m2
02:39 43 °F 41.2 °F 30.2 in Calm     93% 0 in 0 W/m2
02:44 43 °F 41.2 °F 30.2 in Calm     93% 0 in 0 W/m2
02:49 43 °F 41.2 °F 30.2 in WNW 0.9 mph 1 mph 93% 0 in 0 W/m2
02:54 42.8 °F 41 °F 30.2 in Calm   1 mph 93% 0 in 0 W/m2
02:59 42.6 °F 40.8 °F 30.2 in Calm     93% 0 in 0 W/m2
03:04 42.4 °F 40.6 °F 30.2 in Calm   1 mph 93% 0 in 0 W/m2
03:09 42.4 °F 40.6 °F 30.2 in Calm     93% 0 in 0 W/m2
03:14 42.4 °F 40.6 °F 30.2 in Calm   1 mph 93% 0 in 0 W/m2
03:19 42.3 °F 40.5 °F 30.2 in Calm     93% 0 in 0 W/m2
03:24 42.3 °F 40.6 °F 30.2 in Calm   1 mph 94% 0 in 0 W/m2
03:29 42.3 °F 40.6 °F 30.2 in Calm     94% 0 in 0 W/m2
03:34 42.3 °F 40.6 °F 30.2 in Calm     94% 0 in 0 W/m2
03:39 42.3 °F 40.6 °F 30.2 in Calm     94% 0 in 0 W/m2
03:44 42.3 °F 40.6 °F 30.2 in Calm     94% 0 in 0 W/m2
03:49 42.3 °F 40.6 °F 30.2 in Calm     94% 0 in 0 W/m2
03:54 42.1 °F 40.5 °F 30.2 in Calm     94% 0 in 0 W/m2
03:59 42.1 °F 40.5 °F 30.2 in Calm     94% 0 in 0 W/m2
04:04 41.9 °F 40.3 °F 30.2 in Calm     94% 0 in 0 W/m2
04:09 42.1 °F 40.5 °F 30.2 in Calm     94% 0 in 0 W/m2
04:14 42.1 °F 40.8 °F 30.2 in Calm     95% 0 in 0 W/m2
04:19 42.1 °F 40.8 °F 30.2 in Calm     95% 0 in 0 W/m2
04:24 42.1 °F 40.8 °F 30.2 in Calm     95% 0 in 0 W/m2
04:29 42.1 °F 40.8 °F 30.2 in Calm     95% 0 in 0 W/m2
04:34 41.9 °F 40.6 °F 30.2 in Calm     95% 0 in 0 W/m2
04:39 41.7 °F 40.1 °F 30.2 in Calm     94% 0 in 0 W/m2
04:44 41.7 °F 40.1 °F 30.2 in Calm     94% 0 in 0 W/m2
04:49 41.5 °F 39.9 °F 30.2 in Calm     94% 0 in 0 W/m2
04:54 41.5 °F 40.3 °F 30.2 in Calm     95% 0 in 0 W/m2
04:59 41.5 °F 40.3 °F 30.2 in Calm     95% 0 in 0 W/m2
05:04 41.5 °F 40.3 °F 30.2 in Calm     95% 0 in 0 W/m2
05:09 41.5 °F 40.3 °F 30.2 in Calm     95% 0 in 0 W/m2
05:14 41.5 °F 40.3 °F 30.2 in Calm     95% 0 in 0 W/m2
05:19 41.5 °F 40.3 °F 30.2 in Calm     95% 0 in 0 W/m2
05:24 41.5 °F 40.3 °F 30.2 in Calm     95% 0 in 0 W/m2
05:29 41.5 °F 40.3 °F 30.2 in Calm     95% 0 in 0 W/m2
05:34 41.4 °F 40.1 °F 30.1 in Calm     95% 0 in 0 W/m2
05:39 41.4 °F 40.1 °F 30.1 in Calm     95% 0 in 0 W/m2
05:45 41.4 °F 40.1 °F 30.1 in Calm     95% 0 in 0 W/m2
05:50 41.4 °F 40.1 °F 30.1 in Calm     95% 0 in 0 W/m2
05:55 41.2 °F 39.9 °F 30.1 in Calm     95% 0 in 0 W/m2
06:00 41.2 °F 39.9 °F 30.1 in Calm     95% 0 in 0 W/m2
06:05 41.2 °F 39.9 °F 30.1 in Calm     95% 0 in 0 W/m2
06:10 41 °F 39.7 °F 30.1 in Calm     95% 0 in 0 W/m2
06:15 40.8 °F 39.6 °F 30.1 in Calm     95% 0 in 0 W/m2
06:20 40.8 °F 39.6 °F 30.1 in Calm     95% 0 in 0 W/m2
06:25 40.6 °F 39.4 °F 30.1 in Calm     95% 0 in 0 W/m2
06:30 40.6 °F 39.4 °F 30.1 in Calm     95% 0 in 0 W/m2
06:35 40.6 °F 39.4 °F 30.1 in Calm     95% 0 in 0 W/m2
06:40 40.5 °F 39.2 °F 30.1 in Calm     95% 0 in 0 W/m2
06:45 40.5 °F 39.2 °F 30.1 in Calm     95% 0 in 0 W/m2
06:50 40.3 °F 39 °F 30.1 in Calm     95% 0 in 0 W/m2
06:55 40.3 °F 39 °F 30.1 in Calm     95% 0 in 0 W/m2
07:00 40.3 °F 39 °F 30.1 in Calm     95% 0 in 0 W/m2
07:05 40.3 °F 39 °F 30.1 in Calm     95% 0 in 0 W/m2
07:10 40.1 °F 38.8 °F 30.1 in Calm     95% 0 in 0 W/m2
07:15 40.1 °F 38.8 °F 30.1 in Calm     95% 0 in 0 W/m2
07:20 40.1 °F 38.8 °F 30.1 in Calm     95% 0 in 0 W/m2
07:25 39.9 °F 38.7 °F 30.1 in Calm     95% 0 in 0 W/m2
07:30 39.9 °F 38.7 °F 30.1 in Calm     95% 0 in 0 W/m2
07:35 39.9 °F 38.8 °F 30.1 in Calm     96% 0 in 0 W/m2
07:40 40.1 °F 39 °F 30.1 in Calm     96% 0 in 0 W/m2
07:45 40.3 °F 39.2 °F 30.1 in Calm     96% 0 in 5 W/m2
07:50 40.5 °F 39.4 °F 30.1 in Calm     96% 0 in 7 W/m2
07:55 40.5 °F 39.4 °F 30.1 in Calm     96% 0 in 11 W/m2
08:01 40.3 °F 39.2 °F 30.1 in Calm     96% 0 in 12 W/m2
08:06 40.3 °F 39.2 °F 30.1 in Calm     96% 0 in 16 W/m2
08:11 40.3 °F 39.2 °F 30.1 in Calm     96% 0 in 18 W/m2
08:16 40.3 °F 39.2 °F 30.1 in Calm     96% 0 in 19 W/m2
08:21 40.3 °F 39.2 °F 30.1 in Calm     96% 0 in 21 W/m2
08:26 40.3 °F 39.2 °F 30.1 in Calm     96% 0 in 25 W/m2
08:31 40.5 °F 39.4 °F 30.1 in Calm     96% 0 in 26 W/m2
08:36 40.6 °F 39.6 °F 30.1 in Calm     96% 0 in 28 W/m2
08:41 40.6 °F 39.6 °F 30.1 in Calm     96% 0 in 30 W/m2
08:46 40.8 °F 39.7 °F 30.1 in Calm     96% 0 in 30 W/m2
08:51 41 °F 39.9 °F 30.1 in Calm     96% 0 in 32 W/m2
08:56 41.2 °F 40.1 °F 30.1 in Calm     96% 0 in 33 W/m2
09:01 41.4 °F 40.3 °F 30.1 in Calm     96% 0 in 35 W/m2
09:06 41.5 °F 40.5 °F 30.1 in Calm     96% 0 in 35 W/m2
09:11 41.7 °F 40.6 °F 30.1 in Calm     96% 0 in 42 W/m2
09:16 42.1 °F 41 °F 30.1 in Calm     96% 0 in 188 W/m2
09:21 42.4 °F 41.4 °F 30.1 in Calm     96% 0 in 193 W/m2
09:26 43.3 °F 42.6 °F 30.1 in Calm     97% 0 in 211 W/m2
09:31 43.7 °F 43 °F 30.1 in Calm     97% 0 in 218 W/m2
09:37 44.1 °F 43.3 °F 30.1 in Calm   2 mph 97% 0 in 221 W/m2
09:42 44.6 °F 43.9 °F 30.1 in NNE 0.9 mph 2 mph 97% 0 in 243 W/m2
09:47 45 °F 44.2 °F 30.1 in East 0.9 mph 1 mph 97% 0 in 250 W/m2
09:52 45.3 °F 44.6 °F 30.1 in ESE 0.9 mph 2 mph 97% 0 in 281 W/m2
09:57 45.9 °F 45.1 °F 30.1 in Calm     97% 0 in 301 W/m2
10:02 46.2 °F 45.5 °F 30.1 in ENE 0.9 mph 3 mph 97% 0 in 308 W/m2
10:07 47.1 °F 46.4 °F 30.1 in Calm   1 mph 97% 0 in 315 W/m2
10:12 48 °F 46.9 °F 30.1 in ENE 2 mph 2 mph 96% 0 in 327 W/m2
10:17 48.7 °F 47.3 °F 30.1 in ESE 2.9 mph 3 mph 95% 0 in 283 W/m2
10:22 49.5 °F 47.3 °F 30.1 in SSE 2 mph 2 mph 92% 0 in 355 W/m2
10:27 49.8 °F 46.8 °F 30.1 in Calm   2 mph 89% 0 in 373 W/m2
10:32 50.5 °F 47.1 °F 30.1 in ESE 2 mph 3 mph 88% 0 in 380 W/m2
10:37 51.1 °F 47.1 °F 30.1 in NNE 2 mph 3 mph 86% 0 in 383 W/m2
10:42 51.4 °F 47.1 °F 30.1 in NE 0.9 mph 1 mph 85% 0 in 369 W/m2
10:47 51.8 °F 47.1 °F 30.1 in ESE 6 mph 6 mph 84% 0 in 408 W/m2
10:52 52.2 °F 46.8 °F 30.1 in East 2 mph 3 mph 82% 0 in 431 W/m2
10:57 52.3 °F 46.9 °F 30.1 in ENE 2.9 mph 6 mph 82% 0 in 462 W/m2
11:02 52.9 °F 47.5 °F 30.1 in NE 2 mph 3 mph 82% 0 in 452 W/m2
11:07 53.2 °F 47.3 °F 30.1 in NE 2 mph 4 mph 80% 0 in 461 W/m2
11:12 53.4 °F 47.5 °F 30.1 in East 2 mph 3 mph 80% 0 in 468 W/m2
11:17 54 °F 48 °F 30.1 in East 0.9 mph 3 mph 80% 0 in 490 W/m2
11:22 54.5 °F 48.2 °F 30.1 in East 2 mph 3 mph 79% 0 in 503 W/m2
11:27 55.2 °F 48.6 °F 30.1 in East 2.9 mph 4 mph 78% 0 in 503 W/m2
11:32 55.9 °F 48.9 °F 30.1 in ESE 2.9 mph 3 mph 77% 0 in 468 W/m2
11:37 56.5 °F 48.7 °F 30.1 in East 0.9 mph 4 mph 75% 0 in 464 W/m2
11:42 56.8 °F 48.9 °F 30.1 in Calm   3 mph 75% 0 in 478 W/m2
11:47 57.4 °F 48.7 °F 30.1 in ESE 4 mph 5 mph 73% 0 in 531 W/m2
11:52 57.7 °F 49.1 °F 30.1 in Calm   4 mph 73% 0 in 538 W/m2
11:57 58.3 °F 49.3 °F 30.1 in East 0.9 mph 6 mph 72% 0 in 515 W/m2
12:02 58.6 °F 49.3 °F 30.1 in ENE 0.9 mph 3 mph 71% 0 in 541 W/m2
12:07 59.2 °F 49.8 °F 30.1 in ENE 2.9 mph 6 mph 71% 0 in 545 W/m2
12:12 59.4 °F 49.1 °F 30.1 in NE 4 mph 4 mph 69% 0 in 445 W/m2
12:17 59.5 °F 49.3 °F 30.1 in Calm   5 mph 69% 0 in 545 W/m2
12:22 59.9 °F 49.6 °F 30.1 in SSE 0.9 mph 3 mph 69% 0 in 483 W/m2
12:27 60.3 °F 50 °F 30.1 in ENE 2 mph 6 mph 69% 0 in 485 W/m2
12:32 60.4 °F 50.2 °F 30.1 in NE 0.9 mph 4 mph 69% 0 in 338 W/m2
12:37 60.6 °F 50 °F 30.1 in North 0.9 mph 6 mph 68% 0 in 580 W/m2
12:42 61.2 °F 50.5 °F 30.1 in WNW 2 mph 3 mph 68% 0 in 584 W/m2
12:47 61.3 °F 50.4 °F 30.1 in WNW 2 mph 5 mph 67% 0 in 601 W/m2
12:52 61.5 °F 50 °F 30.1 in Calm   4 mph 66% 0 in 610 W/m2
12:57 62.1 °F 50.5 °F 30.1 in SW 2 mph 3 mph 66% 0 in 622 W/m2
13:02 62.4 °F 50.5 °F 30.1 in ENE 2 mph 4 mph 65% 0 in 605 W/m2
13:07 63 °F 48.9 °F 30.1 in NNE 0.9 mph 4 mph 60% 0 in 547 W/m2
13:12 63.3 °F 47.8 °F 30.1 in NNW 2 mph 10 mph 57% 0 in 584 W/m2
13:17 63.3 °F 47.3 °F 30.1 in NNW 2 mph 11 mph 56% 0 in 587 W/m2
13:22 63.7 °F 48.2 °F 30.1 in East 6.9 mph 7 mph 57% 0 in 652 W/m2
13:27 63.5 °F 47.5 °F 30.1 in Calm   6 mph 56% 0 in 628 W/m2
13:32 63.7 °F 47.3 °F 30.1 in WNW 4 mph 4 mph 55% 0 in 684 W/m2
13:37 63.9 °F 46.9 °F 30.1 in NNW 0.9 mph 7 mph 54% 0 in 698 W/m2
13:42 63.9 °F 46.9 °F 30.1 in Calm   3 mph 54% 0 in 573 W/m2
13:47 64.2 °F 47.3 °F 30.1 in NNE 2 mph 6 mph 54% 0 in 643 W/m2
13:52 64.2 °F 46.8 °F 30.1 in SW 2 mph 4 mph 53% 0 in 533 W/m2
13:57 63.9 °F 46.9 °F 30 in SW 2.9 mph 6 mph 54% 0 in 255 W/m2
14:02 63.9 °F 46.9 °F 30 in SSE 2 mph 3 mph 54% 0 in 220 W/m2
14:07 63.7 °F 46.8 °F 30 in NNW 2 mph 4 mph 54% 0 in 218 W/m2
14:12 63.7 °F 46.2 °F 30 in NW 4 mph 5 mph 53% 0 in 209 W/m2
14:17 63.5 °F 46.6 °F 30 in ENE 2 mph 4 mph 54% 0 in 206 W/m2
14:22 63.5 °F 47.1 °F 30 in NW 2 mph 5 mph 55% 0 in 186 W/m2
14:27 63.7 °F 47.7 °F 30 in West 2 mph 7 mph 56% 0 in 179 W/m2
14:32 63.7 °F 47.3 °F 30 in Calm   9 mph 55% 0 in 178 W/m2
14:37 63.9 °F 47.8 °F 30 in NW 4 mph 5 mph 56% 0 in 185 W/m2
14:42 64 °F 48.6 °F 30 in WNW 2.9 mph 4 mph 57% 0 in 206 W/m2
14:47 64.4 °F 47.8 °F 30 in West 4 mph 7 mph 55% 0 in 225 W/m2
14:52 64.4 °F 47.8 °F 30 in Calm   4 mph 55% 0 in 262 W/m2
14:57 64.6 °F 48 °F 30 in SW 0.9 mph 6 mph 55% 0 in 327 W/m2
15:02 64.8 °F 48.7 °F 30 in West 6.9 mph 7 mph 56% 0 in 362 W/m2
15:07 64.6 °F 46 °F 30 in NW 2.9 mph 7 mph 51% 0 in 427 W/m2
15:12 64.2 °F 47.3 °F 30 in WSW 2 mph 6 mph 54% 0 in 250 W/m2
15:17 64.4 °F 48.4 °F 30 in SE 2 mph 4 mph 56% 0 in 374 W/m2
15:22 64.6 °F 47.1 °F 30 in Calm   6 mph 53% 0 in 353 W/m2
15:27 64.6 °F 47.5 °F 30 in WNW 0.9 mph 4 mph 54% 0 in 278 W/m2
15:32 64.6 °F 47.1 °F 30 in ESE 0.9 mph 3 mph 53% 0 in 237 W/m2
15:37 64.6 °F 47.1 °F 30 in West 2 mph 3 mph 53% 0 in 204 W/m2
15:42 64.2 °F 47.7 °F 30 in Calm   4 mph 55% 0 in 207 W/m2
15:47 64 °F 47.1 °F 30 in NW 0.9 mph 8 mph 54% 0 in 207 W/m2
15:52 64 °F 46.6 °F 30 in Calm   4 mph 53% 0 in 227 W/m2
15:57 64 °F 47.1 °F 30 in Calm   2 mph 54% 0 in 301 W/m2
16:02 64.2 °F 47.7 °F 30 in Calm   2 mph 55% 0 in 257 W/m2
16:07 64.6 °F 49.5 °F 30 in SE 0.9 mph 2 mph 58% 0 in 192 W/m2
16:12 64.4 °F 48.4 °F 30 in East 0.9 mph 3 mph 56% 0 in 200 W/m2
16:17 64.2 °F 48.2 °F 30 in ENE 0.9 mph 4 mph 56% 0 in 204 W/m2
16:22 64.2 °F 48.2 °F 30 in NW 0.9 mph 2 mph 56% 0 in 221 W/m2
16:27 64.2 °F 48.2 °F 30 in Calm   1 mph 56% 0 in 272 W/m2
16:32 64.4 °F 48.4 °F 30 in NE 2 mph 2 mph 56% 0 in 255 W/m2
16:37 64.6 °F 48.9 °F 30 in Calm   2 mph 57% 0 in 250 W/m2
16:42 64.6 °F 48.6 °F 30 in West 0.9 mph 2 mph 56% 0 in 197 W/m2
16:47 64.6 °F 48 °F 30 in Calm   2 mph 55% 0 in 163 W/m2
16:52 64.4 °F 47.8 °F 30 in WNW 2.9 mph 3 mph 55% 0 in 149 W/m2
16:57 64.2 °F 47.7 °F 30 in NW 0.9 mph 5 mph 55% 0 in 141 W/m2
17:02 64 °F 47.5 °F 30 in NNW 0.9 mph 1 mph 55% 0 in 139 W/m2
17:07 64 °F 48 °F 30 in NNE 0.9 mph 5 mph 56% 0 in 146 W/m2
17:12 64 °F 48 °F 30 in West 0.9 mph 2 mph 56% 0 in 142 W/m2
17:17 63.9 °F 47.8 °F 30 in ESE 0.9 mph 4 mph 56% 0 in 127 W/m2
17:22 63.9 °F 49.3 °F 30 in WNW 2 mph 2 mph 59% 0 in 113 W/m2
17:27 63.7 °F 48.6 °F 30 in WNW 0.9 mph 4 mph 58% 0 in 100 W/m2
17:32 63.3 °F 48.4 °F 30 in West 0.9 mph 4 mph 58% 0 in 91 W/m2
17:37 63.1 °F 49.5 °F 30 in Calm   1 mph 61% 0 in 83 W/m2
17:42 63.1 °F 50.4 °F 30 in Calm   4 mph 63% 0 in 79 W/m2
17:47 62.8 °F 50.4 °F 30 in Calm   1 mph 64% 0 in 72 W/m2
17:52 62.4 °F 50.9 °F 30 in Calm     66% 0 in 65 W/m2
17:57 62.2 °F 50.4 °F 30 in Calm   1 mph 65% 0 in 58 W/m2
18:02 61.9 °F 50.4 °F 30 in Calm     66% 0 in 54 W/m2
18:07 61.7 °F 50.7 °F 30 in West 0.9 mph 2 mph 67% 0 in 53 W/m2
18:12 61.3 °F 51.1 °F 30 in Calm     69% 0 in 53 W/m2
18:17 61.2 °F 51.3 °F 30 in Calm     70% 0 in 51 W/m2
18:22 61 °F 51.4 °F 30 in Calm     71% 0 in 47 W/m2
18:27 60.4 °F 51.1 °F 30 in Calm     71% 0 in 39 W/m2
18:32 60.3 °F 50.9 °F 30 in Calm   1 mph 71% 0 in 33 W/m2
18:37 59.9 °F 50.9 °F 30 in Calm   1 mph 72% 0 in 28 W/m2
18:42 59.7 °F 51.1 °F 30 in Calm   1 mph 73% 0 in 23 W/m2
18:47 59.4 °F 51.1 °F 30 in Calm     74% 0 in 18 W/m2
18:52 59.2 °F 51.3 °F 30 in Calm     75% 0 in 14 W/m2
18:58 58.8 °F 50.9 °F 30 in Calm     75% 0 in 11 W/m2
19:03 58.5 °F 50.9 °F 30 in Calm     76% 0 in 7 W/m2
19:08 58.3 °F 50.7 °F 30 in West 0.9 mph 1 mph 76% 0 in 5 W/m2
19:13 57.9 °F 50.7 °F 30 in Calm     77% 0 in 0 W/m2
19:18 57.6 °F 50.4 °F 30 in West 0.9 mph 1 mph 77% 0 in 0 W/m2
19:23 57.4 °F 50.5 °F 30 in Calm   1 mph 78% 0 in 0 W/m2
19:28 57 °F 50.2 °F 30 in Calm     78% 0 in 0 W/m2
19:33 56.8 °F 50.4 °F 30 in Calm     79% 0 in 0 W/m2
19:38 56.7 °F 50.5 °F 30 in Calm     80% 0 in 0 W/m2
19:43 56.3 °F 50.2 °F 30 in Calm   1 mph 80% 0 in 0 W/m2
19:48 56.1 °F 50 °F 30 in Calm     80% 0 in 0 W/m2
19:53 55.9 °F 50.2 °F 30 in Calm   1 mph 81% 0 in 0 W/m2
19:58 55.8 °F 50 °F 30 in Calm   2 mph 81% 0 in 0 W/m2
20:03 55.6 °F 50.2 °F 30 in Calm     82% 0 in 0 W/m2
20:08 55.6 °F 50.2 °F 30 in Calm   2 mph 82% 0 in 0 W/m2
20:13 55.2 °F 49.8 °F 30 in Calm     82% 0 in 0 W/m2
20:18 55.2 °F 50.2 °F 30 in Calm     83% 0 in 0 W/m2
20:23 55 °F 50 °F 30 in Calm     83% 0 in 0 W/m2
20:28 55 °F 50 °F 30 in Calm     83% 0 in 0 W/m2
20:33 55 °F 50 °F 30 in Calm     83% 0 in 0 W/m2
20:38 55 °F 50.4 °F 30 in Calm     84% 0 in 0 W/m2
20:43 55 °F 50.4 °F 30 in Calm     84% 0 in 0 W/m2
20:48 55 °F 50.4 °F 30 in Calm   1 mph 84% 0 in 0 W/m2
20:53 55 °F 50.4 °F 30 in Calm     84% 0 in 0 W/m2
20:58 55 °F 50.4 °F 30 in Calm     84% 0 in 0 W/m2
21:03 55 °F 50.5 °F 30 in Calm     85% 0 in 0 W/m2
21:08 55 °F 50.5 °F 30 in Calm   1 mph 85% 0 in 0 W/m2
21:13 55 °F 50.5 °F 30 in Calm     85% 0 in 0 W/m2
21:18 54.9 °F 50.4 °F 30 in Calm   1 mph 85% 0 in 0 W/m2
21:23 54.9 °F 50.4 °F 30 in Calm     85% 0 in 0 W/m2
21:28 54.9 °F 50.4 °F 30 in Calm     85% 0 in 0 W/m2
21:33 54.9 °F 50.7 °F 30 in Calm     86% 0 in 0 W/m2
21:38 54.9 °F 50.7 °F 30 in Calm   1 mph 86% 0 in 0 W/m2
21:43 54.9 °F 50.7 °F 30 in West 0.9 mph 1 mph 86% 0 in 0 W/m2
21:48 55 °F 50.5 °F 30 in Calm   2 mph 85% 0 in 0 W/m2
21:53 55 °F 50.9 °F 30 in SW 0.9 mph 1 mph 86% 0 in 0 W/m2
21:58 55.2 °F 50.7 °F 30 in East 0.9 mph 3 mph 85% 0 in 0 W/m2
22:03 55.4 °F 50.9 °F 30 in Calm   4 mph 85% 0 in 0 W/m2
22:08 55.8 °F 51.1 °F 30 in East 0.9 mph 1 mph 84% 0 in 0 W/m2
22:13 55.8 °F 50.7 °F 30 in Calm   4 mph 83% 0 in 0 W/m2
22:18 55.9 °F 50.9 °F 30 in Calm   2 mph 83% 0 in 0 W/m2
22:23 56.1 °F 50.7 °F 30 in East 0.9 mph 2 mph 82% 0 in 0 W/m2
22:28 56.5 °F 50.4 °F 30 in NW 0.9 mph 2 mph 80% 0 in 0 W/m2
22:33 56.8 °F 50.4 °F 30 in NW 0.9 mph 4 mph 79% 0 in 0 W/m2
22:38 57.4 °F 50.9 °F 30 in NW 4 mph 6 mph 79% 0 in 0 W/m2
22:43 57.6 °F 51.1 °F 30 in NW 2.9 mph 8 mph 79% 0 in 0 W/m2
22:48 57.4 °F 51.3 °F 30 in WNW 4 mph 6 mph 80% 0 in 0 W/m2
22:53 57.4 °F 51.3 °F 30 in WSW 4 mph 7 mph 80% 0 in 0 W/m2
22:58 57 °F 51.3 °F 30 in WNW 6.9 mph 7 mph 81% 0 in 0 W/m2
23:03 56.7 °F 51.3 °F 30 in WSW 4.9 mph 12 mph 82% 0 in 0 W/m2
23:08 56.5 °F 51.4 °F 30 in WSW 4.9 mph 7 mph 83% 0 in 0 W/m2
23:13 56.1 °F 51.4 °F 30 in WNW 2 mph 8 mph 84% 0 in 0 W/m2
23:18 55.9 °F 51.3 °F 30 in WNW 4.9 mph 6 mph 84% 0 in 0 W/m2
23:23 55.8 °F 51.3 °F 30 in NW 2.9 mph 7 mph 85% 0 in 0 W/m2
23:28 55.6 °F 51.1 °F 30 in NNW 2.9 mph 7 mph 85% 0 in 0 W/m2
23:33 55.4 °F 51.3 °F 30 in Calm   2 mph 86% 0 in 0 W/m2
23:38 55.2 °F 51.1 °F 30 in NW 2 mph 3 mph 86% 0 in 0 W/m2
23:43 55.2 °F 51.1 °F 30 in WNW 0.9 mph 3 mph 86% 0 in 0 W/m2
23:48 55 °F 51.3 °F 30 in NW 2.9 mph 5 mph 87% 0 in 0 W/m2
23:53 55 °F 51.3 °F 30 in North 2.9 mph 4 mph 87% 0 in 0 W/m2
23:58 55 °F 51.3 °F 30 in WNW 0.9 mph 3 mph 87% 0 in 0 W/m2
Juneau County Weather
Compliments of Weather Underground - 4 mb